Time;durP1;ratioP1;P1;durP2;ratioP2;P2;SDS_P1;SDS_P2;PMS_P1;PMS_P2;Temp;Humidity;BMP_temperature;BMP_pressure;BME280_temperature;BME280_humidity;BME280_pressure;Samples;Min_cycle;Max_cycle;Signal;HPM_P1;HPM_P2
2022/11/29 00:02:46;;;;;;;;;16.00;16.00;;;;;8.61;77.36;101001.28;146616;600;46020;-72
2022/11/29 00:05:40;;;;;;;;;16.75;15.50;;;;;8.61;76.58;101006.47;146611;564;46017;-73
2022/11/29 00:08:41;;;;;;;;;13.50;13.50;;;;;8.55;76.57;101000.09;146605;573;46020;-71
2022/11/29 00:15:09;;;;;;;;;18.50;16.00;;;;;8.67;75.48;101012.03;146614;569;46014;-72
2022/11/29 00:18:06;;;;;;;;;15.75;15.25;;;;;8.70;75.55;101019.97;146607;569;46016;-71
2022/11/29 00:21:11;;;;;;;;;12.50;11.75;;;;;5.90;75.03;100526.31;146613;591;46021;-71
2022/11/29 00:24:08;;;;;;;;;18.50;17.00;;;;;8.68;75.63;101025.03;146608;579;46016;-72
2022/11/29 00:27:04;;;;;;;;;16.75;14.25;;;;;8.67;75.66;101025.84;146608;565;46020;-70
2022/11/29 00:30:00;;;;;;;;;14.00;12.25;;;;;8.67;75.94;101028.44;146606;574;46012;-70
2022/11/29 00:33:11;;;;;;;;;17.50;15.00;;;;;8.65;76.19;101027.41;146610;702;47010;-71
2022/11/29 00:36:30;;;;;;;;;17.00;14.50;;;;;8.69;75.90;101025.91;146610;716;46012;-71
2022/11/29 00:39:35;;;;;;;;;;;;;;;;;;;;;
2022/11/29 00:42:31;;;;;;;;;20.00;17.50;;;;;8.66;76.48;101015.38;146605;590;46017;-71
2022/11/29 00:45:29;;;;;;;;;14.75;14.25;;;;;8.64;76.62;101025.66;146613;593;46029;-71
2022/11/29 00:48:24;;;;;;;;;20.50;18.25;;;;;8.65;76.55;101023.94;146611;624;46016;-71
2022/11/29 00:51:17;;;;;;;;;16.00;14.00;;;;;8.67;76.67;101033.59;146610;566;46010;-72
2022/11/29 00:54:17;;;;;;;;;15.75;14.75;;;;;8.64;76.91;101035.09;146612;761;46915;-72
2022/11/29 00:57:15;;;;;;;;;8.25;7.00;;;;;8.63;77.03;101028.12;146614;611;46030;-72
2022/11/29 01:00:31;;;;;;;;;22.25;18.00;;;;;8.61;77.15;101025.44;146611;569;46016;-73
2022/11/29 01:03:35;;;;;;;;;15.75;15.75;;;;;8.58;76.67;101019.19;146614;651;46010;-72
2022/11/29 01:06:40;;;;;;;;;;;;;;;;;;;;;
2022/11/29 01:09:36;;;;;;;;;14.00;13.00;;;;;8.56;76.87;101026.84;146630;638;45020;-74
2022/11/29 01:12:37;;;;;;;;;16.00;14.25;;;;;8.53;77.69;101044.72;146633;601;45915;-73
2022/11/29 01:15:33;;;;;;;;;17.00;14.25;;;;;8.54;77.46;101046.53;146636;617;46010;-72
2022/11/29 01:18:25;;;;;;;;;15.50;13.50;;;;;8.51;77.27;101033.41;146633;669;45016;-69
2022/11/29 01:21:24;;;;;;;;;15.00;15.00;;;;;8.54;77.72;101036.19;146635;577;45021;-69
2022/11/29 01:24:27;;;;;;;;;15.50;14.50;;;;;8.52;77.84;101028.34;146632;590;46012;-70
2022/11/29 01:27:19;;;;;;;;;17.50;14.75;;;;;8.47;77.33;101016.81;146635;577;45014;-73
2022/11/29 01:30:21;;;;;;;;;17.50;16.25;;;;;8.55;78.26;101027.63;146630;615;45016;-71
2022/11/29 01:33:28;;;;;;;;;21.75;19.00;;;;;6.12;77.47;100605.88;146633;569;45021;-70
2022/11/29 01:36:36;;;;;;;;;23.25;20.50;;;;;8.59;77.61;101031.31;146631;691;45912;-70
2022/11/29 01:39:31;;;;;;;;;17.75;14.50;;;;;8.60;77.67;101031.41;146631;569;45010;-70
2022/11/29 01:42:25;;;;;;;;;15.25;15.25;;;;;8.59;77.45;101033.91;146631;622;46013;-69
2022/11/29 01:45:54;;;;;;;;;14.50;13.25;;;;;6.98;76.73;100749.78;146635;576;45020;-71
2022/11/29 01:48:53;;;;;;;;;13.25;12.50;;;;;8.58;77.00;101033.00;146634;584;45012;-70
2022/11/29 01:52:02;;;;;;;;;25.50;23.75;;;;;8.55;76.75;101036.28;146634;614;45020;-70
2022/11/29 01:55:15;;;;;;;;;16.75;13.75;;;;;6.95;76.82;100755.66;146633;640;46014;-70
2022/11/29 01:58:13;;;;;;;;;17.25;14.25;;;;;8.50;76.09;101032.53;146636;666;45020;-71
2022/11/29 02:01:08;;;;;;;;;21.50;17.50;;;;;8.54;75.95;101043.94;146632;565;45016;-71
2022/11/29 02:04:01;;;;;;;;;17.50;15.00;;;;;8.52;75.75;101027.44;146620;773;46010;-71
2022/11/29 02:06:54;;;;;;;;;13.75;12.00;;;;;8.53;75.70;101030.09;146609;677;46016;-71
2022/11/29 02:10:02;;;;;;;;;11.25;9.50;;;;;8.56;75.16;101045.81;146608;668;46020;-71
2022/11/29 02:13:37;;;;;;;;;15.50;12.00;;;;;6.21;74.50;100639.97;146617;598;46016;-70
2022/11/29 02:17:15;;;;;;;;;15.50;14.25;;;;;8.64;74.53;101055.78;146614;563;46010;-75
2022/11/29 02:20:47;;;;;;;;;16.00;14.00;;;;;8.71;74.49;101063.13;146610;569;46016;-75
2022/11/29 02:24:35;;;;;;;;;17.00;14.50;;;;;7.13;73.67;100779.16;146613;621;46020;-77
2022/11/29 02:28:22;;;;;;;;;15.50;12.50;;;;;7.14;72.92;100771.53;146610;573;46033;-72
2022/11/29 02:31:53;;;;;;;;;16.25;14.00;;;;;7.14;73.14;100766.37;146615;582;46012;-72
2022/11/29 02:35:27;;;;;;;;;15.75;14.50;;;;;8.72;73.37;101024.44;146610;569;46012;-71
2022/11/29 02:39:20;;;;;;;;;17.25;15.00;;;;;7.18;72.97;100749.41;146614;626;46020;-71
2022/11/29 02:43:24;;;;;;;;;20.50;14.75;;;;;7.13;72.65;100751.72;146608;666;46911;-72
2022/11/29 02:47:00;;;;;;;;;12.75;11.75;;;;;6.31;72.81;100613.16;146606;635;46021;-72
2022/11/29 02:50:13;;;;;;;;;16.75;15.75;;;;;8.71;73.40;101032.97;146610;575;46016;-73
2022/11/29 02:54:05;;;;;;;;;16.00;15.25;;;;;8.63;73.70;101033.28;146610;597;46020;-71
2022/11/29 02:57:27;;;;;;;;;14.50;12.50;;;;;8.59;73.48;101033.91;146605;569;46016;-73
2022/11/29 03:00:49;;;;;;;;;14.50;13.75;;;;;5.40;73.95;100468.91;146611;596;47012;-77
2022/11/29 03:04:00;;;;;;;;;14.75;14.00;;;;;8.48;74.44;101028.06;146607;579;46013;-73
2022/11/29 03:07:33;;;;;;;;;17.25;14.75;;;;;8.47;74.68;101023.66;146619;593;46020;-81
2022/11/29 03:11:01;;;;;;;;;17.50;14.50;;;;;8.47;74.50;100996.16;146614;570;46017;-74
2022/11/29 03:14:18;;;;;;;;;16.25;14.50;;;;;8.39;74.68;100997.34;146619;633;46010;-72
2022/11/29 03:18:07;;;;;;;;;15.75;13.50;;;;;6.77;74.93;100715.78;146615;587;46013;-72
2022/11/29 03:21:40;;;;;;;;;17.50;17.00;;;;;8.35;75.47;100995.31;146616;563;45032;-71
2022/11/29 03:25:16;;;;;;;;;17.25;15.50;;;;;8.34;74.01;100997.00;146617;617;46017;-72
2022/11/29 03:29:13;;;;;;;;;12.75;12.25;;;;;5.51;73.85;100499.72;146619;550;46020;-72
2022/11/29 03:32:46;;;;;;;;;17.00;11.00;;;;;8.34;74.21;100996.09;146615;565;46017;-71
2022/11/29 03:36:09;;;;;;;;;14.75;13.50;;;;;8.33;74.01;100994.31;146626;615;45022;-71
2022/11/29 03:39:25;;;;;;;;;14.25;12.75;;;;;8.34;73.85;100997.00;146622;564;46012;-72
2022/11/29 03:42:49;;;;;;;;;12.00;12.00;;;;;8.39;73.24;100997.34;146621;581;45021;-72
2022/11/29 03:46:08;;;;;;;;;15.50;15.25;;;;;8.42;73.48;100994.94;146617;611;46016;-73
2022/11/29 03:49:36;;;;;;;;;14.00;13.00;;;;;6.89;73.87;100714.00;146619;578;46021;-72
2022/11/29 03:52:51;;;;;;;;;15.25;11.50;;;;;8.47;74.22;100993.56;146617;580;46016;-73
2022/11/29 03:56:15;;;;;;;;;17.75;15.25;;;;;8.53;74.54;101000.78;146616;651;46010;-72
2022/11/29 03:59:43;;;;;;;;;17.00;13.75;;;;;8.58;74.04;101006.28;146617;571;46014;-73
2022/11/29 04:03:27;;;;;;;;;15.00;12.75;;;;;8.57;74.28;100995.03;146619;577;46021;-72
2022/11/29 04:07:25;;;;;;;;;15.50;13.50;;;;;4.25;72.88;100253.03;146631;658;46012;-72
2022/11/29 04:11:00;;;;;;;;;17.75;13.25;;;;;6.90;73.67;100715.78;146637;580;45021;-71
2022/11/29 04:14:37;;;;;;;;;15.25;13.50;;;;;8.56;73.60;101012.22;146635;583;46012;-70
2022/11/29 04:18:06;;;;;;;;;15.75;12.50;;;;;8.54;73.63;101018.09;146636;576;46010;-71
2022/11/29 04:21:44;;;;;;;;;16.00;15.50;;;;;8.46;73.60;101025.34;146633;628;45012;-71
2022/11/29 04:25:07;;;;;;;;;13.25;10.75;;;;;8.42;73.58;101023.37;146636;571;45021;-70
2022/11/29 04:28:37;;;;;;;;;13.00;10.50;;;;;8.40;73.23;101031.81;146633;598;45911;-72
2022/11/29 04:31:48;;;;;;;;;13.50;12.50;;;;;8.38;73.35;101034.31;146631;595;45021;-70
2022/11/29 04:35:32;;;;;;;;;15.75;12.75;;;;;6.69;73.44;100741.03;146627;702;46016;-74
2022/11/29 04:39:16;;;;;;;;;18.50;16.00;;;;;6.54;72.72;100697.13;146635;637;45020;-72
2022/11/29 04:43:04;;;;;;;;;13.25;11.25;;;;;6.74;72.66;100752.53;146634;644;45016;-75
2022/11/29 04:46:31;;;;;;;;;13.25;10.00;;;;;8.43;72.79;101038.06;146636;588;45010;-73
2022/11/29 04:50:15;;;;;;;;;14.75;14.75;;;;;8.43;72.69;101032.91;146627;618;47028;-71
2022/11/29 04:53:43;;;;;;;;;16.00;13.00;;;;;8.45;72.66;101033.03;146636;617;45010;-75
2022/11/29 04:56:55;;;;;;;;;16.00;13.25;;;;;8.47;72.57;101029.75;146636;600;45037;-72
2022/11/29 05:00:11;;;;;;;;;11.75;11.75;;;;;8.48;72.40;101039.28;146636;584;46014;-77
2022/11/29 05:03:21;;;;;;;;;17.75;14.50;;;;;8.53;72.68;101049.91;146634;592;45914;-75
2022/11/29 05:07:07;;;;;;;;;15.00;13.50;;;;;8.55;72.24;101049.22;146611;579;45020;-80
2022/11/29 05:10:22;;;;;;;;;17.50;15.50;;;;;8.60;71.89;101038.25;146604;555;47915;-80
2022/11/29 05:13:59;;;;;;;;;21.25;17.75;;;;;8.65;71.08;101053.28;146612;690;46014;-77
2022/11/29 05:17:27;;;;;;;;;23.50;21.50;;;;;8.70;71.64;101045.81;146605;566;46017;-76
2022/11/29 05:20:58;;;;;;;;;16.50;13.00;;;;;8.71;71.12;101056.25;146610;588;47020;-75
2022/11/29 05:24:13;;;;;;;;;20.75;16.00;;;;;8.71;71.13;101064.00;146604;566;46032;-72
2022/11/29 05:27:49;;;;;;;;;28.50;25.75;;;;;6.19;70.66;100622.63;146616;627;45031;-73
2022/11/29 05:31:32;;;;;;;;;15.50;13.00;;;;;7.08;70.59;100765.97;146605;612;46916;-73
2022/11/29 05:35:04;;;;;;;;;17.75;15.50;;;;;7.33;70.52;100808.84;146614;660;46020;-69
2022/11/29 05:38:06;;;;;;;;;16.00;16.00;;;;;8.76;71.41;101057.44;146609;733;46915;-74
2022/11/29 05:41:34;;;;;;;;;13.50;12.75;;;;;8.79;70.39;101062.81;146606;695;46020;-73
2022/11/29 05:45:26;;;;;;;;;20.75;20.25;;;;;8.87;71.10;101077.91;146606;749;46012;-74
2022/11/29 05:49:31;;;;;;;;;21.25;16.50;;;;;7.25;70.71;100782.53;146610;569;46010;-77
2022/11/29 05:53:21;;;;;;;;;26.25;23.75;;;;;8.93;71.02;101058.50;146605;609;46012;-74
2022/11/29 05:56:27;;;;;;;;;25.25;22.00;;;;;8.94;71.66;101065.47;146614;607;46020;-73
2022/11/29 05:59:30;;;;;;;;;30.75;24.75;;;;;8.96;71.57;101083.66;146604;563;46016;-74
2022/11/29 06:02:55;;;;;;;;;18.50;15.50;;;;;8.93;70.53;101075.72;146611;570;46010;-74
2022/11/29 06:06:28;;;;;;;;;15.50;13.00;;;;;7.20;69.83;100790.78;146609;614;46913;-69
2022/11/29 06:09:49;;;;;;;;;14.00;11.25;;;;;7.17;69.53;100787.22;146615;612;46013;-76
2022/11/29 06:13:42;;;;;;;;;16.50;12.50;;;;;7.17;69.70;100792.38;146609;595;46016;-74
2022/11/29 06:17:28;;;;;;;;;;;;;;;;;;;;;
2022/11/29 06:21:28;;;;;;;;;17.50;14.50;;;;;7.26;69.43;100794.66;146606;596;46016;-78
2022/11/29 06:25:03;;;;;;;;;20.75;18.50;;;;;7.38;69.85;100807.44;146608;636;46014;-78
2022/11/29 06:28:31;;;;;;;;;16.00;14.00;;;;;9.13;70.10;101088.22;146604;577;46016;-84
2022/11/29 06:32:04;;;;;;;;;17.00;14.50;;;;;9.23;69.27;101090.59;146608;619;46011;-75
2022/11/29 06:35:23;;;;;;;;;15.00;11.25;;;;;9.30;68.98;101089.25;146611;607;46012;-78
2022/11/29 06:38:56;;;;;;;;;13.50;12.00;;;;;7.66;69.82;100799.78;146608;602;47010;-75
2022/11/29 06:41:51;;;;;;;;;15.25;14.25;;;;;7.82;69.94;100849.03;146607;613;46016;-78
2022/11/29 06:44:46;;;;;;;;;15.25;12.75;;;;;9.27;69.79;101099.41;146609;598;46015;-76
2022/11/29 06:48:03;;;;;;;;;15.50;14.25;;;;;9.31;70.01;101097.91;146607;608;46016;-78
2022/11/29 06:51:24;;;;;;;;;12.75;12.75;;;;;9.36;70.05;101086.16;146603;571;46010;-79
2022/11/29 06:55:05;;;;;;;;;12.75;12.75;;;;;9.40;70.26;101082.97;146606;588;46012;-78
2022/11/29 06:58:34;;;;;;;;;14.25;10.25;;;;;9.45;69.91;101081.56;146609;657;46010;-79
2022/11/29 07:01:57;;;;;;;;;15.25;15.25;;;;;7.78;69.39;100779.94;146604;590;46012;-79
2022/11/29 07:05:37;;;;;;;;;11.75;10.25;;;;;6.69;70.19;100599.31;146616;612;46020;-78
2022/11/29 07:08:34;;;;;;;;;15.00;14.00;;;;;9.49;69.64;101068.88;146601;702;47914;-77
2022/11/29 07:11:29;;;;;;;;;17.50;15.50;;;;;9.54;69.65;101070.87;146611;588;46010;-78
2022/11/29 07:14:25;;;;;;;;;10.50;9.50;;;;;9.58;69.79;101063.38;146606;715;46914;-79
2022/11/29 07:18:04;;;;;;;;;13.00;12.75;;;;;9.63;69.56;101061.97;146617;601;46021;-77
2022/11/29 07:21:49;;;;;;;;;11.00;9.50;;;;;9.66;69.75;101069.03;146608;624;46016;-78
2022/11/29 07:25:55;;;;;;;;;;;;;;;;;;;;;
2022/11/29 07:29:36;;;;;;;;;23.75;15.00;;;;;9.81;68.98;101051.81;146613;667;46012;-75
2022/11/29 07:33:28;;;;;;;;;22.00;15.75;;;;;9.93;70.05;101052.53;146614;660;46020;-79
2022/11/29 07:37:12;;;;;;;;;14.25;14.00;;;;;9.01;69.09;100818.47;146608;622;46024;-76
2022/11/29 07:40:30;;;;;;;;;17.25;16.25;;;;;10.50;68.37;101044.56;146611;574;46010;-78
2022/11/29 07:44:00;;;;;;;;;16.50;13.50;;;;;9.06;67.18;100760.09;146606;575;46016;-74
2022/11/29 07:47:07;;;;;;;;;;;;;;;;;;;;;
2022/11/29 07:50:09;;;;;;;;;21.50;16.75;;;;;10.72;68.40;101039.78;146608;611;46911;-79
2022/11/29 07:53:15;;;;;;;;;;;;;;;;;;;;;
2022/11/29 07:56:15;;;;;;;;;13.50;11.25;;;;;10.94;68.10;101034.09;146612;579;45911;-82
2022/11/29 07:59:11;;;;;;;;;13.25;11.75;;;;;11.18;67.85;101036.22;146611;574;45037;-78
2022/11/29 08:02:09;;;;;;;;;15.25;12.00;;;;;11.38;67.34;101037.28;146609;593;45914;-81
2022/11/29 08:05:15;;;;;;;;;18.00;16.50;;;;;11.59;67.30;101033.22;146619;604;45020;-79
2022/11/29 08:08:14;;;;;;;;;11.00;11.00;;;;;11.82;67.04;101030.91;146618;609;46016;-80
2022/11/29 08:11:16;;;;;;;;;7.00;6.00;;;;;12.01;65.12;101037.13;146619;616;46020;-80
2022/11/29 08:14:17;;;;;;;;;9.00;8.00;;;;;12.20;63.90;101038.06;146617;586;46013;-80
2022/11/29 08:17:24;;;;;;;;;5.00;5.00;;;;;12.37;63.75;101038.91;146621;739;46020;-76
2022/11/29 08:20:18;;;;;;;;;8.75;8.25;;;;;12.45;62.81;101030.63;146617;615;46016;-80
2022/11/29 08:23:17;;;;;;;;;11.00;7.25;;;;;12.45;63.58;101029.75;146620;618;46021;-78
2022/11/29 08:26:16;;;;;;;;;12.00;11.75;;;;;12.44;63.15;101027.97;146613;563;46016;-80
2022/11/29 08:29:13;;;;;;;;;10.00;7.75;;;;;12.41;63.23;101026.09;146611;630;46021;-79
2022/11/29 08:32:19;;;;;;;;;10.75;9.75;;;;;12.41;63.80;101043.44;146615;607;46016;-79
2022/11/29 08:35:20;;;;;;;;;11.75;9.00;;;;;12.38;63.42;101057.16;146621;608;46020;-78
2022/11/29 08:38:14;;;;;;;;;13.75;12.00;;;;;12.36;62.99;101048.38;146604;603;47913;-79
2022/11/29 08:41:32;;;;;;;;;12.00;9.25;;;;;12.36;63.34;101037.97;146618;589;46014;-78
2022/11/29 08:44:28;;;;;;;;;11.50;10.00;;;;;12.38;63.18;101048.47;146610;577;46016;-80
2022/11/29 08:47:36;;;;;;;;;13.75;11.50;;;;;10.87;63.54;100775.13;146618;635;46020;-78
2022/11/29 08:50:31;;;;;;;;;15.00;13.25;;;;;12.44;63.22;101054.88;146612;640;46012;-77
2022/11/29 08:53:45;;;;;;;;;12.75;11.00;;;;;11.30;63.06;100844.75;146619;629;46010;-80
2022/11/29 08:56:41;;;;;;;;;10.50;10.00;;;;;12.48;62.87;101040.28;146612;606;47016;-77
2022/11/29 08:59:47;;;;;;;;;;;;;;;;;;;;;
2022/11/29 09:02:42;;;;;;;;;14.00;14.00;;;;;12.63;62.85;101030.63;146612;587;46016;-78
2022/11/29 09:05:58;;;;;;;;;10.75;8.75;;;;;10.03;62.77;100600.63;146611;633;46021;-78
2022/11/29 09:09:03;;;;;;;;;14.00;11.75;;;;;12.74;62.77;101045.84;146613;614;46016;-77
2022/11/29 09:11:58;;;;;;;;;12.50;9.50;;;;;12.81;62.74;101042.75;146606;566;46020;-81
2022/11/29 09:15:03;;;;;;;;;;;;;;;;;;;;;
2022/11/29 09:17:59;;;;;;;;;10.75;10.00;;;;;12.92;60.99;101037.19;146611;660;46020;-79
2022/11/29 09:21:18;;;;;;;;;;;;;;;;;;;;;
2022/11/29 09:24:25;;;;;;;;;;;;;;;;;;;;;
2022/11/29 09:27:21;;;;;;;;;20.75;16.50;;;;;12.80;61.44;101018.41;146607;596;46016;-78
2022/11/29 09:30:31;;;;;;;;;8.75;8.75;;;;;12.71;62.26;101026.69;146603;618;47010;-77
2022/11/29 09:33:23;;;;;;;;;10.00;10.00;;;;;12.66;61.57;101029.87;146612;569;46012;-78
2022/11/29 09:36:36;;;;;;;;;10.75;9.00;;;;;11.32;61.92;100823.25;146609;565;46020;-77
2022/11/29 09:39:50;;;;;;;;;;;;;;;;;;;;;
2022/11/29 09:43:37;;;;;;;;;15.50;14.50;;;;;10.96;63.00;100774.69;146608;608;47020;-78
2022/11/29 09:47:03;;;;;;;;;17.25;16.25;;;;;12.47;62.78;101028.12;146606;572;46016;-78
2022/11/29 09:50:42;;;;;;;;;13.50;13.50;;;;;10.91;62.81;100769.28;146611;582;46020;-80
2022/11/29 09:54:17;;;;;;;;;14.25;10.75;;;;;12.43;62.97;101019.28;146608;650;46016;-78
2022/11/29 09:57:13;;;;;;;;;10.75;10.75;;;;;12.42;61.68;101021.78;146610;611;46021;-78
2022/11/29 10:00:18;;;;;;;;;12.25;11.50;;;;;12.37;61.94;101005.97;146609;581;46016;-78
2022/11/29 10:03:46;;;;;;;;;13.25;12.00;;;;;9.63;62.33;100538.13;146605;582;46020;-78
2022/11/29 10:07:30;;;;;;;;;18.50;14.50;;;;;8.84;62.20;100408.91;146634;616;46012;-79
2022/11/29 10:10:42;;;;;;;;;14.00;12.50;;;;;12.29;62.17;101004.72;146638;575;45014;-78
2022/11/29 10:14:04;;;;;;;;;18.75;15.25;;;;;9.33;62.06;100485.63;146632;566;45017;-79
2022/11/29 10:18:05;;;;;;;;;13.50;13.00;;;;;12.30;62.08;101003.88;146636;563;45010;-79
2022/11/29 10:21:14;;;;;;;;;13.75;13.50;;;;;12.31;61.03;101000.47;146634;564;45017;-81
2022/11/29 10:24:31;;;;;;;;;12.25;12.00;;;;;9.77;59.93;100544.00;146625;565;46010;-79
2022/11/29 10:27:38;;;;;;;;;11.00;9.00;;;;;12.34;60.99;100986.75;146634;587;45017;-79
2022/11/29 10:30:42;;;;;;;;;11.50;11.50;;;;;12.31;61.33;100984.00;146635;610;45020;-79
2022/11/29 10:33:38;;;;;;;;;9.00;8.75;;;;;12.32;60.91;100983.16;146636;565;45015;-77
2022/11/29 10:37:01;;;;;;;;;8.25;7.75;;;;;12.32;61.21;100978.84;146632;593;45010;-79
2022/11/29 10:40:08;;;;;;;;;6.25;6.25;;;;;12.36;60.43;100972.09;146639;570;46911;-80
2022/11/29 10:43:00;;;;;;;;;11.75;10.50;;;;;12.40;60.50;100955.84;146634;697;46010;-78
2022/11/29 10:46:01;;;;;;;;;12.00;10.75;;;;;12.45;60.85;100944.81;146632;565;46012;-78
2022/11/29 10:49:02;;;;;;;;;12.50;10.75;;;;;12.53;60.33;100944.28;146634;635;46013;-76
2022/11/29 10:51:58;;;;;;;;;10.25;9.00;;;;;12.58;60.26;100947.97;146636;680;45016;-80
2022/11/29 10:54:53;;;;;;;;;8.25;7.25;;;;;11.34;60.38;100706.53;146636;580;45020;-78
2022/11/29 10:58:28;;;;;;;;;;;;;;;;;;;;;
2022/11/29 11:01:31;;;;;;;;;;;;;;;;;;;;;
2022/11/29 11:04:59;;;;;;;;;8.00;8.00;;;;;12.88;59.94;100932.91;146628;598;46013;-78
2022/11/29 11:08:04;;;;;;;;;16.00;12.00;;;;;12.88;59.85;100931.19;146607;582;47020;-78
2022/11/29 11:11:03;;;;;;;;;11.00;8.75;;;;;12.88;59.88;100915.56;146611;613;47012;-77
2022/11/29 11:14:10;;;;;;;;;11.25;10.25;;;;;12.88;60.20;100909.47;146619;588;46010;-81
2022/11/29 11:17:41;;;;;;;;;12.75;12.75;;;;;10.08;60.09;100459.25;146609;613;46012;-80
2022/11/29 11:20:37;;;;;;;;;13.75;13.75;;;;;12.83;59.31;100903.16;146616;609;46010;-78
2022/11/29 11:23:42;;;;;;;;;19.00;16.75;;;;;12.81;59.56;100902.22;146610;577;46016;-80
2022/11/29 11:26:53;;;;;;;;;24.25;21.50;;;;;12.82;60.06;100901.37;146612;597;46011;-77
2022/11/29 11:30:00;;;;;;;;;22.75;17.75;;;;;12.86;60.56;100909.38;146608;573;46016;-78
2022/11/29 11:33:31;;;;;;;;;20.50;16.25;;;;;12.91;61.15;100894.87;146611;676;46020;-77
2022/11/29 11:36:35;;;;;;;;;18.50;15.25;;;;;12.98;61.52;100897.75;146605;617;48012;-77
2022/11/29 11:39:36;;;;;;;;;17.25;15.25;;;;;13.01;59.05;100893.56;146608;569;46020;-78
2022/11/29 11:42:43;;;;;;;;;14.25;12.75;;;;;12.98;60.19;100901.25;146609;566;46016;-78
2022/11/29 11:45:52;;;;;;;;;16.50;14.50;;;;;12.98;60.56;100888.22;146610;652;46020;-78
2022/11/29 11:48:48;;;;;;;;;17.25;14.50;;;;;12.98;59.52;100897.75;146611;664;46013;-79
2022/11/29 11:51:51;;;;;;;;;18.25;16.00;;;;;12.97;61.01;100901.19;146614;566;46020;-79
2022/11/29 11:54:55;;;;;;;;;12.50;10.75;;;;;12.99;60.43;100908.25;146610;569;46012;-79
2022/11/29 11:57:47;;;;;;;;;16.25;16.25;;;;;12.99;61.27;100908.25;146613;644;46021;-79
2022/11/29 12:00:55;;;;;;;;;16.75;14.50;;;;;12.97;60.90;100909.00;146608;621;46016;-78
2022/11/29 12:04:12;;;;;;;;;14.00;14.00;;;;;12.95;60.34;100906.31;146613;650;46021;-78
2022/11/29 12:07:17;;;;;;;;;10.25;10.25;;;;;11.59;59.92;100658.31;146634;698;45016;-79
2022/11/29 12:10:21;;;;;;;;;15.50;13.75;;;;;12.89;60.39;100908.66;146627;580;45020;-78
2022/11/29 12:13:23;;;;;;;;;14.00;13.00;;;;;12.86;60.34;100906.78;146631;619;46012;-78
2022/11/29 12:16:48;;;;;;;;;15.25;11.50;;;;;12.85;60.41;100905.03;146635;595;45020;-81
2022/11/29 12:19:53;;;;;;;;;12.75;12.00;;;;;12.82;60.30;100898.78;146630;628;46913;-78
2022/11/29 12:23:30;;;;;;;;;13.25;12.50;;;;;12.80;60.69;100896.09;146635;593;46010;-80
2022/11/29 12:27:01;;;;;;;;;8.00;7.00;;;;;11.18;60.46;100624.44;146629;606;45017;-76
2022/11/29 12:29:55;;;;;;;;;18.50;15.75;;;;;12.70;60.12;100906.94;146633;578;45020;-79
2022/11/29 12:33:05;;;;;;;;;9.00;8.00;;;;;11.94;60.91;100777.78;146633;580;45012;-79
2022/11/29 12:36:45;;;;;;;;;;;;;;;;;;;;;
2022/11/29 12:40:36;;;;;;;;;;;;;;;;;;;;;
2022/11/29 12:44:21;;;;;;;;;6.50;6.50;;;;;9.66;61.29;100389.00;146628;577;46010;-82
2022/11/29 12:47:47;;;;;;;;;6.25;6.00;;;;;12.54;61.35;100904.44;146627;636;47936;-80
2022/11/29 12:51:20;;;;;;;;;5.50;5.25;;;;;12.50;61.15;100908.63;146637;572;45027;-78
2022/11/29 12:55:31;;;;;;;;;3.25;3.25;;;;;9.60;60.66;100422.34;146630;645;46014;-80
2022/11/29 12:59:04;;;;;;;;;14.75;13.50;;;;;12.39;61.42;100908.09;146634;632;45020;-79
2022/11/29 13:02:28;;;;;;;;;29.50;23.75;;;;;12.37;61.51;100906.28;146633;563;45017;-80
2022/11/29 13:06:04;;;;;;;;;21.75;18.00;;;;;12.34;60.65;100895.75;146625;648;45032;-81
2022/11/29 13:09:21;;;;;;;;;15.25;13.50;;;;;12.31;61.50;100898.19;146609;571;46016;-80
2022/11/29 13:12:31;;;;;;;;;16.25;14.00;;;;;12.29;60.92;100903.31;146613;610;46010;-78
2022/11/29 13:15:46;;;;;;;;;11.75;11.25;;;;;10.92;60.39;100669.91;146608;593;46016;-78
2022/11/29 13:19:15;;;;;;;;;11.00;8.50;;;;;12.22;61.50;100904.72;146606;578;46021;-77
2022/11/29 13:22:47;;;;;;;;;12.25;10.50;;;;;12.22;61.38;100907.31;146615;646;46016;-78
2022/11/29 13:25:46;;;;;;;;;8.50;8.50;;;;;12.23;61.29;100911.69;146612;576;46014;-76
2022/11/29 13:28:58;;;;;;;;;15.00;11.25;;;;;12.22;61.22;100912.53;146617;580;46014;-79
2022/11/29 13:31:54;;;;;;;;;9.75;9.75;;;;;12.22;61.14;100911.66;146610;604;46020;-78
2022/11/29 13:34:53;;;;;;;;;9.25;9.25;;;;;12.18;60.50;100915.81;146617;631;46012;-77
2022/11/29 13:38:07;;;;;;;;;12.75;12.00;;;;;12.15;60.94;100926.06;146617;609;46020;-78
2022/11/29 13:41:47;;;;;;;;;8.25;7.25;;;;;9.72;60.98;100497.16;146610;574;46017;-80
2022/11/29 13:45:20;;;;;;;;;8.25;7.00;;;;;9.31;61.46;100428.62;146618;597;46020;-80
2022/11/29 13:48:50;;;;;;;;;15.00;12.50;;;;;12.12;61.08;100914.59;146616;619;46018;-78
2022/11/29 13:51:43;;;;;;;;;14.25;13.25;;;;;12.12;60.94;100917.19;146605;650;46010;-77
2022/11/29 13:54:41;;;;;;;;;9.75;6.50;;;;;12.13;60.66;100917.28;146610;564;46013;-78
2022/11/29 13:58:10;;;;;;;;;6.50;6.50;;;;;10.69;61.04;100665.28;146622;604;46014;-77
2022/11/29 14:01:27;;;;;;;;;14.00;11.00;;;;;12.09;61.49;100914.47;146616;564;46014;-77
2022/11/29 14:04:50;;;;;;;;;19.25;18.25;;;;;12.08;61.51;100910.09;146612;617;46021;-77
2022/11/29 14:08:41;;;;;;;;;17.00;15.25;;;;;9.66;61.70;100489.09;146603;591;46037;-78
2022/11/29 14:12:13;;;;;;;;;8.50;8.25;;;;;12.08;61.36;100912.69;146614;579;46021;-78
2022/11/29 14:15:32;;;;;;;;;12.75;10.00;;;;;9.20;61.46;100456.53;146607;618;47012;-78
2022/11/29 14:19:29;;;;;;;;;22.00;20.75;;;;;9.14;61.62;100420.00;146616;592;46014;-78
2022/11/29 14:22:29;;;;;;;;;27.75;24.50;;;;;12.00;61.07;100926.22;146609;565;46913;-77
2022/11/29 14:25:45;;;;;;;;;13.00;11.75;;;;;11.96;61.61;100921.69;146606;620;46021;-77
2022/11/29 14:28:40;;;;;;;;;22.50;19.75;;;;;11.95;61.88;100919.88;146609;615;46016;-77
2022/11/29 14:31:51;;;;;;;;;19.50;18.25;;;;;11.96;62.17;100921.69;146612;604;46020;-78
2022/11/29 14:34:56;;;;;;;;;31.50;26.75;;;;;11.97;62.20;100923.47;146611;599;46016;-77
2022/11/29 14:38:37;;;;;;;;;47.25;38.25;;;;;9.00;62.50;100398.59;146613;591;46010;-78
2022/11/29 14:42:13;;;;;;;;;150.75;122.00;;;;;12.00;63.01;100926.22;146610;575;48016;-79
2022/11/29 14:45:35;;;;;;;;;20.75;19.00;;;;;12.02;63.02;100934.06;146612;575;46020;-77
2022/11/29 14:48:34;;;;;;;;;35.50;32.50;;;;;12.03;62.16;100935.88;146608;665;46017;-79
2022/11/29 14:51:38;;;;;;;;;16.00;14.75;;;;;12.05;62.16;100941.13;146612;598;46020;-78
2022/11/29 14:54:33;;;;;;;;;9.00;8.00;;;;;12.02;62.27;100929.78;146610;678;46013;-75
2022/11/29 14:58:07;;;;;;;;;26.25;23.25;;;;;12.06;62.52;100948.13;146609;590;46020;-77
2022/11/29 15:01:05;;;;;;;;;14.00;13.00;;;;;11.99;62.23;100942.63;146612;574;46012;-77
2022/11/29 15:04:14;;;;;;;;;17.75;16.00;;;;;12.05;62.73;100954.12;146617;618;45050;-79
2022/11/29 15:07:29;;;;;;;;;21.50;18.75;;;;;12.04;62.57;100963.63;146633;569;45912;-79
2022/11/29 15:10:40;;;;;;;;;20.50;18.25;;;;;12.05;62.82;100969.72;146634;594;45021;-77
2022/11/29 15:14:00;;;;;;;;;37.50;30.00;;;;;12.00;63.09;100973.00;146630;598;45912;-77
2022/11/29 15:17:19;;;;;;;;;41.00;33.50;;;;;9.13;63.06;100498.41;146634;582;45010;-76
2022/11/29 15:20:56;;;;;;;;;28.75;25.75;;;;;11.89;63.51;100973.25;146633;609;45016;-76
2022/11/29 15:23:53;;;;;;;;;28.50;23.50;;;;;11.78;63.47;100978.78;146629;570;45010;-78
2022/11/29 15:27:10;;;;;;;;;38.50;31.75;;;;;11.68;63.92;100973.94;146627;595;47012;-76
2022/11/29 15:30:28;;;;;;;;;28.25;27.25;;;;;11.63;64.30;100982.31;146626;586;45038;-77
2022/11/29 15:33:31;;;;;;;;;28.75;23.25;;;;;11.59;64.01;100985.56;146633;637;45911;-77